createdAt,value
2023-09-17T00:01:28.880Z,3.58
2023-09-17T00:03:55.921Z,4.27
2023-09-17T00:06:22.665Z,4.03
2023-09-17T00:08:49.098Z,4.18
2023-09-17T00:11:15.843Z,3.92
2023-09-17T00:13:43.725Z,4.20
2023-09-17T00:16:10.476Z,8.40
2023-09-17T00:18:37.030Z,5.47
2023-09-17T00:21:03.464Z,3.92
2023-09-17T00:23:29.941Z,3.92
2023-09-17T00:25:56.363Z,4.82
2023-09-17T00:28:22.792Z,4.97
2023-09-17T00:30:50.726Z,4.15
2023-09-17T00:33:17.226Z,4.32
2023-09-17T00:35:44.333Z,3.75
2023-09-17T00:38:10.795Z,5.32
2023-09-17T00:40:37.319Z,4.10
2023-09-17T00:43:04.273Z,4.25
2023-09-17T00:45:31.559Z,5.15
2023-09-17T00:48:00.536Z,6.07
2023-09-17T00:50:27.124Z,6.32
2023-09-17T00:52:53.820Z,4.13
2023-09-17T00:55:20.664Z,5.53
2023-09-17T00:57:47.274Z,5.18
2023-09-17T01:00:14.258Z,7.38
2023-09-17T01:02:42.550Z,5.97
2023-09-17T01:05:10.431Z,6.77
2023-09-17T01:07:37.165Z,5.75
2023-09-17T01:10:04.502Z,6.93
2023-09-17T01:12:31.783Z,6.72
2023-09-17T01:14:58.315Z,7.80
2023-09-17T01:17:24.949Z,8.57
2023-09-17T01:19:51.430Z,8.70
2023-09-17T01:22:26.160Z,8.10
2023-09-17T01:25:02.844Z,9.90
2023-09-17T01:27:31.856Z,11.30
2023-09-17T01:29:58.265Z,11.40
2023-09-17T01:32:24.785Z,12.75
2023-09-17T01:34:51.342Z,15.13
2023-09-17T01:37:21.696Z,22.15
2023-09-17T01:39:53.732Z,18.70
2023-09-17T01:42:22.184Z,19.73
2023-09-17T01:44:50.978Z,21.90
2023-09-17T01:47:18.279Z,22.80
2023-09-17T01:49:45.914Z,19.98
2023-09-17T01:52:13.073Z,19.30
2023-09-17T01:54:39.581Z,17.20
2023-09-17T01:57:06.148Z,19.40
2023-09-17T01:59:32.682Z,25.10
2023-09-17T02:02:00.544Z,24.55
2023-09-17T02:04:27.049Z,27.05
2023-09-17T02:06:53.479Z,21.87
2023-09-17T02:09:19.995Z,24.30
2023-09-17T02:11:46.410Z,27.67
2023-09-17T02:14:12.851Z,23.90
2023-09-17T02:16:41.466Z,27.25
2023-09-17T02:19:09.291Z,24.03
2023-09-17T02:21:35.687Z,24.38
2023-09-17T02:24:02.151Z,28.40
2023-09-17T02:26:28.572Z,27.02
2023-09-17T02:28:54.999Z,25.42
2023-09-17T02:31:21.665Z,26.07
2023-09-17T02:33:48.552Z,26.65
2023-09-17T02:36:16.446Z,23.95
2023-09-17T02:38:42.873Z,20.20
2023-09-17T02:41:09.295Z,24.95
2023-09-17T02:43:35.944Z,24.00
2023-09-17T02:46:02.466Z,18.48
2023-09-17T02:48:28.862Z,20.45
2023-09-17T02:50:55.357Z,22.98
2023-09-17T02:53:23.172Z,22.88
2023-09-17T02:55:49.743Z,21.77
2023-09-17T02:58:16.501Z,20.25
2023-09-17T03:00:42.972Z,21.67
2023-09-17T03:03:09.593Z,18.17
2023-09-17T03:05:36.158Z,21.83
2023-09-17T03:08:03.055Z,21.17
2023-09-17T03:10:30.929Z,21.30
2023-09-17T03:12:57.402Z,20.45
2023-09-17T03:15:23.898Z,24.88
2023-09-17T03:17:50.416Z,24.52
2023-09-17T03:20:16.898Z,26.23
2023-09-17T03:22:43.841Z,25.83
2023-09-17T03:25:11.461Z,23.35
2023-09-17T03:27:39.434Z,25.27
2023-09-17T03:30:07.344Z,26.20
2023-09-17T03:32:34.022Z,26.27
2023-09-17T03:35:01.207Z,26.83
2023-09-17T03:37:27.678Z,27.80
2023-09-17T03:40:05.615Z,23.80
2023-09-17T03:42:32.041Z,23.90
2023-09-17T03:44:59.900Z,23.43
2023-09-17T03:47:26.348Z,23.98
2023-09-17T03:49:52.852Z,25.48
2023-09-17T03:52:19.440Z,23.15
2023-09-17T03:54:46.003Z,26.77
2023-09-17T03:57:12.526Z,23.67
2023-09-17T03:59:39.012Z,24.88
2023-09-17T04:02:06.814Z,23.08
2023-09-17T04:04:33.406Z,24.45
2023-09-17T04:06:59.863Z,25.02
2023-09-17T04:09:26.343Z,22.67
2023-09-17T04:11:52.769Z,20.10
2023-09-17T04:14:19.269Z,18.98
2023-09-17T04:16:45.694Z,24.98
2023-09-17T04:19:13.622Z,20.40
2023-09-17T04:21:40.021Z,18.97
2023-09-17T04:24:07.196Z,19.60
2023-09-17T04:26:33.682Z,18.60
2023-09-17T04:29:00.103Z,17.13
2023-09-17T04:31:26.837Z,16.23
2023-09-17T04:33:53.524Z,19.70
2023-09-17T04:36:21.326Z,17.95
2023-09-17T04:38:47.823Z,15.13
2023-09-17T04:41:15.115Z,18.15
2023-09-17T04:43:41.584Z,15.00
2023-09-17T04:46:08.067Z,16.63
2023-09-17T04:48:34.467Z,12.98
2023-09-17T04:51:00.962Z,13.55
2023-09-17T04:53:28.771Z,13.98
2023-09-17T04:55:55.267Z,15.50
2023-09-17T04:58:21.750Z,14.23
2023-09-17T05:00:48.287Z,13.68
2023-09-17T05:03:14.801Z,16.77
2023-09-17T05:05:41.754Z,14.70
2023-09-17T05:08:08.242Z,14.50
2023-09-17T05:10:36.074Z,14.30
2023-09-17T05:13:02.712Z,17.08
2023-09-17T05:15:29.144Z,15.70
2023-09-17T05:17:55.624Z,13.88
2023-09-17T05:20:22.148Z,14.82
2023-09-17T05:22:48.572Z,13.40
2023-09-17T05:25:15.087Z,14.65
2023-09-17T05:27:43.014Z,14.93
2023-09-17T05:30:10.013Z,14.38
2023-09-17T05:32:36.749Z,14.57
2023-09-17T05:35:03.680Z,12.37
2023-09-17T05:37:30.149Z,15.63
2023-09-17T05:39:56.656Z,13.65
2023-09-17T05:42:23.223Z,12.65
2023-09-17T05:44:50.985Z,12.75
2023-09-17T05:47:17.433Z,13.97
2023-09-17T05:49:44.005Z,12.25
2023-09-17T05:52:10.531Z,10.80
2023-09-17T05:54:37.026Z,9.38
2023-09-17T05:57:04.692Z,9.48
2023-09-17T05:59:32.717Z,10.20
2023-09-17T06:02:00.771Z,11.18
2023-09-17T06:04:27.338Z,9.77
2023-09-17T06:06:53.752Z,8.10
2023-09-17T06:09:20.160Z,7.43
2023-09-17T06:11:47.546Z,7.40
2023-09-17T06:14:15.238Z,9.10
2023-09-17T06:16:55.972Z,7.85
2023-09-17T06:19:25.477Z,7.32
2023-09-17T06:21:53.331Z,6.30
2023-09-17T06:24:19.861Z,5.90
2023-09-17T06:26:46.311Z,6.43
2023-09-17T06:29:12.813Z,5.95
2023-09-17T06:31:40.148Z,5.22
2023-09-17T06:34:07.763Z,6.07
2023-09-17T06:36:35.596Z,5.47
2023-09-17T06:39:02.048Z,5.15
2023-09-17T06:41:28.524Z,5.22
2023-09-17T06:43:55.187Z,6.28
2023-09-17T06:46:21.922Z,5.43
2023-09-17T06:48:49.600Z,4.50
2023-09-17T06:51:21.379Z,5.38
2023-09-17T06:53:49.722Z,4.93
2023-09-17T06:56:16.730Z,4.70
2023-09-17T06:58:45.051Z,6.38
2023-09-17T07:01:11.554Z,4.37
2023-09-17T07:03:38.153Z,7.07
2023-09-17T07:06:04.700Z,11.57
2023-09-17T07:08:31.279Z,5.90
2023-09-17T07:10:59.031Z,5.00
2023-09-17T07:13:25.582Z,4.40
2023-09-17T07:15:52.108Z,5.43
2023-09-17T07:18:18.522Z,4.97
2023-09-17T07:20:44.979Z,5.22
2023-09-17T07:23:11.420Z,5.60
2023-09-17T07:25:37.856Z,5.30
2023-09-17T07:28:06.648Z,5.85
2023-09-17T07:30:33.212Z,4.90
2023-09-17T07:32:59.664Z,4.90
2023-09-17T07:35:26.408Z,5.38
2023-09-17T07:37:52.857Z,4.73
2023-09-17T07:40:19.336Z,5.25
2023-09-17T07:42:45.825Z,5.07
2023-09-17T07:45:13.630Z,4.57
2023-09-17T07:47:40.213Z,5.72
2023-09-17T07:50:07.813Z,4.20
2023-09-17T07:52:34.321Z,4.30
2023-09-17T07:55:00.977Z,3.97
2023-09-17T07:57:28.118Z,5.22
2023-09-17T07:59:54.538Z,6.07
2023-09-17T08:02:22.409Z,7.10
2023-09-17T08:04:48.911Z,4.80
2023-09-17T08:07:15.636Z,4.80
2023-09-17T08:09:42.048Z,7.07
2023-09-17T08:12:08.935Z,6.30
2023-09-17T08:14:35.778Z,4.97
2023-09-17T08:17:02.365Z,5.90
2023-09-17T08:19:30.197Z,4.95
2023-09-17T08:21:56.603Z,4.30
2023-09-17T08:24:23.251Z,5.45
2023-09-17T08:26:49.799Z,8.97
2023-09-17T08:29:16.266Z,4.57
2023-09-17T08:31:42.830Z,5.70
2023-09-17T08:34:09.331Z,5.88
2023-09-17T08:36:37.863Z,6.72
2023-09-17T08:39:04.296Z,4.47
2023-09-17T08:41:30.844Z,5.55
2023-09-17T08:43:58.407Z,4.70
2023-09-17T08:46:27.876Z,6.70
2023-09-17T08:48:54.642Z,5.43
2023-09-17T08:51:24.391Z,3.93
2023-09-17T08:54:02.038Z,6.03
2023-09-17T08:56:31.638Z,7.30
2023-09-17T08:59:04.638Z,5.03
2023-09-17T09:01:33.022Z,4.28
2023-09-17T09:04:01.156Z,4.73
2023-09-17T09:06:29.850Z,6.18
2023-09-17T09:08:58.624Z,3.78
2023-09-17T09:11:25.644Z,3.90
2023-09-17T09:13:52.458Z,4.05
2023-09-17T09:16:19.677Z,4.10
2023-09-17T09:18:46.219Z,3.88
2023-09-17T09:21:12.690Z,4.45
2023-09-17T09:23:39.168Z,3.80
2023-09-17T09:26:07.171Z,3.63
2023-09-17T09:28:34.638Z,6.73
2023-09-17T09:31:01.132Z,4.20
2023-09-17T09:33:27.754Z,4.07
2023-09-17T09:35:54.750Z,5.45
2023-09-17T09:38:21.315Z,4.60
2023-09-17T09:40:48.836Z,5.00
2023-09-17T09:43:30.260Z,4.65
2023-09-17T09:46:01.608Z,5.22
2023-09-17T09:48:28.165Z,4.28
2023-09-17T09:50:55.026Z,6.40
2023-09-17T09:53:21.415Z,5.07
2023-09-17T09:55:49.118Z,3.65
2023-09-17T09:58:16.035Z,5.03
2023-09-17T10:00:44.110Z,3.88
2023-09-17T10:03:10.619Z,3.70
2023-09-17T10:05:38.028Z,3.13
2023-09-17T10:08:05.295Z,4.38
2023-09-17T10:10:32.610Z,4.25
2023-09-17T10:13:00.543Z,4.63
2023-09-17T10:15:27.728Z,3.40
2023-09-17T10:17:57.147Z,3.73
2023-09-17T10:20:27.177Z,4.15
2023-09-17T10:22:55.337Z,5.55
2023-09-17T10:25:24.276Z,3.67
2023-09-17T10:27:54.937Z,4.05
2023-09-17T10:30:22.812Z,3.00
2023-09-17T10:32:51.357Z,3.40
2023-09-17T10:35:19.381Z,3.78
2023-09-17T10:37:46.957Z,3.38
2023-09-17T10:40:14.155Z,3.13
2023-09-17T10:42:40.902Z,3.80
2023-09-17T10:45:09.452Z,4.07
2023-09-17T10:47:36.280Z,4.85
2023-09-17T10:50:03.406Z,4.43
2023-09-17T10:52:31.392Z,4.22
2023-09-17T10:54:58.184Z,7.00
2023-09-17T10:57:32.951Z,2.95
2023-09-17T11:00:01.440Z,5.28
2023-09-17T11:02:31.880Z,2.70
2023-09-17T11:05:00.268Z,3.78
2023-09-17T11:07:27.592Z,5.20
2023-09-17T11:09:55.440Z,5.60
2023-09-17T11:12:22.581Z,3.28
2023-09-17T11:14:49.128Z,5.93
2023-09-17T11:17:17.546Z,5.53
2023-09-17T11:19:43.996Z,6.00
2023-09-17T11:22:13.221Z,3.97
2023-09-17T11:24:39.788Z,4.07
2023-09-17T11:27:07.536Z,4.38
2023-09-17T11:29:38.436Z,4.55
2023-09-17T11:32:05.176Z,6.57
2023-09-17T11:34:33.350Z,4.47
2023-09-17T11:36:59.935Z,4.15
2023-09-17T11:39:26.486Z,4.15
2023-09-17T11:41:55.392Z,4.78
2023-09-17T11:44:23.744Z,5.63
2023-09-17T11:46:50.749Z,4.22
2023-09-17T11:49:17.677Z,4.63
2023-09-17T11:51:45.498Z,3.83
2023-09-17T11:54:12.640Z,6.00
2023-09-17T11:56:46.236Z,3.30
2023-09-17T11:59:12.754Z,4.43
2023-09-17T12:01:43.243Z,6.78
2023-09-17T12:04:11.335Z,4.22
2023-09-17T12:06:39.768Z,3.60
2023-09-17T12:09:29.777Z,4.33
2023-09-17T12:11:56.732Z,4.72
2023-09-17T12:14:24.063Z,3.95
2023-09-17T12:16:54.744Z,4.85
2023-09-17T12:19:21.745Z,5.22
2023-09-17T12:21:49.837Z,3.07
2023-09-17T12:24:20.533Z,2.90
2023-09-17T12:27:06.990Z,3.78
2023-09-17T12:29:33.890Z,4.95
2023-09-17T12:32:02.186Z,3.00
2023-09-17T12:34:28.741Z,2.53
2023-09-17T12:36:55.152Z,3.30
2023-09-17T12:39:21.752Z,3.65
2023-09-17T12:41:48.270Z,2.70
2023-09-17T12:44:14.846Z,5.63
2023-09-17T12:46:41.929Z,5.27
2023-09-17T12:49:10.096Z,3.13
2023-09-17T12:51:37.891Z,3.50
2023-09-17T12:54:04.909Z,6.15
2023-09-17T12:56:33.254Z,4.35
2023-09-17T12:58:59.984Z,3.30
2023-09-17T13:01:26.454Z,2.45
2023-09-17T13:03:54.583Z,3.60
2023-09-17T13:06:24.464Z,2.92
2023-09-17T13:08:51.585Z,3.05
2023-09-17T13:11:18.905Z,4.27
2023-09-17T13:13:45.927Z,2.95
2023-09-17T13:16:13.023Z,3.38
2023-09-17T13:18:40.067Z,3.13
2023-09-17T13:21:09.868Z,3.20
2023-09-17T13:23:39.463Z,2.87
2023-09-17T13:26:07.309Z,3.22
2023-09-17T13:28:34.179Z,4.93
2023-09-17T13:31:01.593Z,3.08
2023-09-17T13:33:28.299Z,2.60
2023-09-17T13:35:55.093Z,2.90
2023-09-17T13:38:21.895Z,3.50
2023-09-17T13:40:51.299Z,3.65
2023-09-17T13:43:18.460Z,3.47
2023-09-17T13:45:55.637Z,2.92
2023-09-17T13:48:22.744Z,3.03
2023-09-17T13:50:49.568Z,3.00
2023-09-17T13:53:16.646Z,3.60
2023-09-17T13:55:43.367Z,3.50
2023-09-17T13:58:12.408Z,2.80
2023-09-17T14:00:38.917Z,4.23
2023-09-17T14:03:10.250Z,4.70
2023-09-17T14:05:36.710Z,3.88
2023-09-17T14:08:03.316Z,3.25
2023-09-17T14:10:30.046Z,3.33
2023-09-17T14:12:56.773Z,3.00
2023-09-17T14:15:24.623Z,4.53
2023-09-17T14:17:51.102Z,5.32
2023-09-17T14:20:17.627Z,3.10
2023-09-17T14:22:44.116Z,5.85
2023-09-17T14:25:10.568Z,7.97
2023-09-17T14:27:37.093Z,3.80
2023-09-17T14:30:04.202Z,3.17
2023-09-17T14:32:32.292Z,3.20
2023-09-17T14:34:58.952Z,2.90
2023-09-17T14:37:27.056Z,4.13
2023-09-17T14:39:53.449Z,3.08
2023-09-17T14:42:20.565Z,3.00
2023-09-17T14:44:46.976Z,5.00
2023-09-17T14:47:13.530Z,2.72
2023-09-17T14:49:41.340Z,2.90
2023-09-17T14:52:07.804Z,6.55
2023-09-17T14:54:34.597Z,3.03
2023-09-17T14:57:01.019Z,3.22
2023-09-17T14:59:27.512Z,3.58
2023-09-17T15:02:00.411Z,2.93
2023-09-17T15:04:27.612Z,3.05
2023-09-17T15:06:55.562Z,4.60
2023-09-17T15:09:26.964Z,2.78
2023-09-17T15:11:53.837Z,3.20
2023-09-17T15:14:20.313Z,4.67
2023-09-17T15:16:46.812Z,4.00
2023-09-17T15:19:13.280Z,2.85
2023-09-17T15:21:39.697Z,2.70
2023-09-17T15:24:08.008Z,3.58
2023-09-17T15:26:34.410Z,3.07
2023-09-17T15:29:00.853Z,2.70
2023-09-17T15:31:27.357Z,2.92
2023-09-17T15:33:53.897Z,3.10
2023-09-17T15:36:20.724Z,5.40
2023-09-17T15:38:47.230Z,3.67
2023-09-17T15:41:15.178Z,5.25
2023-09-17T15:43:42.284Z,3.70
2023-09-17T15:46:09.077Z,3.20
2023-09-17T15:48:35.598Z,3.88
2023-09-17T15:51:02.724Z,3.90
2023-09-17T15:53:29.172Z,3.15
2023-09-17T15:55:56.299Z,2.88
2023-09-17T15:58:24.120Z,3.38
2023-09-17T16:00:50.627Z,5.68
2023-09-17T16:03:17.221Z,3.17
2023-09-17T16:05:44.054Z,3.13
2023-09-17T16:08:11.196Z,3.60
2023-09-17T16:10:39.539Z,4.15
2023-09-17T16:13:06.799Z,3.17
2023-09-17T16:15:34.649Z,3.63
2023-09-17T16:18:01.109Z,2.67
2023-09-17T16:20:27.648Z,3.30
2023-09-17T16:22:54.106Z,2.97
2023-09-17T16:25:20.711Z,3.00
2023-09-17T16:27:47.188Z,3.43
2023-09-17T16:30:14.354Z,3.75
2023-09-17T16:32:42.491Z,5.30
2023-09-17T16:35:10.038Z,6.10
2023-09-17T16:37:36.681Z,7.20
2023-09-17T16:40:03.517Z,3.10
2023-09-17T16:42:30.480Z,4.07
2023-09-17T16:45:01.775Z,4.03
2023-09-17T16:47:29.712Z,6.28
2023-09-17T16:49:57.665Z,4.07
2023-09-17T16:52:25.622Z,5.47
2023-09-17T16:54:52.063Z,4.47
2023-09-17T16:57:18.895Z,4.78
2023-09-17T16:59:45.909Z,4.97
2023-09-17T17:02:14.258Z,4.93
2023-09-17T17:04:40.877Z,5.40
2023-09-17T17:07:08.768Z,4.10
2023-09-17T17:09:37.756Z,6.65
2023-09-17T17:12:09.040Z,4.03
2023-09-17T17:14:35.653Z,7.25
2023-09-17T17:17:02.245Z,3.17
2023-09-17T17:19:28.824Z,6.88
2023-09-17T17:21:55.420Z,3.45
2023-09-17T17:24:23.194Z,3.97
2023-09-17T17:26:49.768Z,6.00
2023-09-17T17:29:19.053Z,3.80
2023-09-17T17:31:45.696Z,4.18
2023-09-17T17:34:12.339Z,4.53
2023-09-17T17:36:38.866Z,3.80
2023-09-17T17:39:05.366Z,3.30
2023-09-17T17:41:33.258Z,3.90
2023-09-17T17:44:00.082Z,6.07
2023-09-17T17:46:26.901Z,5.47
2023-09-17T17:48:53.382Z,3.72
2023-09-17T17:51:19.891Z,3.50
2023-09-17T17:53:46.555Z,5.10
2023-09-17T17:56:14.174Z,4.25
2023-09-17T17:58:42.072Z,3.28
2023-09-17T18:01:08.718Z,6.20
2023-09-17T18:03:35.322Z,3.63
2023-09-17T18:06:01.862Z,5.47
2023-09-17T18:08:28.594Z,4.32
2023-09-17T18:10:55.165Z,5.13
2023-09-17T18:13:21.792Z,4.75
2023-09-17T18:15:49.977Z,3.15
2023-09-17T18:18:16.628Z,4.40
2023-09-17T18:20:44.566Z,6.20
2023-09-17T18:23:11.120Z,4.15
2023-09-17T18:25:37.587Z,3.42
2023-09-17T18:28:04.492Z,7.32
2023-09-17T18:30:30.911Z,4.63
2023-09-17T18:32:58.743Z,4.78
2023-09-17T18:35:25.350Z,4.40
2023-09-17T18:37:51.926Z,6.57
2023-09-17T18:40:18.476Z,4.53
2023-09-17T18:42:44.922Z,3.83
2023-09-17T18:45:13.171Z,9.85
2023-09-17T18:47:40.151Z,4.25
2023-09-17T18:50:08.882Z,4.13
2023-09-17T18:52:35.375Z,5.93
2023-09-17T18:55:01.999Z,4.57
2023-09-17T18:57:33.743Z,4.57
2023-09-17T19:00:00.197Z,9.25
2023-09-17T19:02:26.944Z,5.20
2023-09-17T19:04:53.579Z,4.43
2023-09-17T19:07:21.509Z,8.13
2023-09-17T19:09:48.187Z,5.55
2023-09-17T19:12:14.693Z,5.68
2023-09-17T19:14:41.190Z,6.20
2023-09-17T19:17:07.782Z,5.72
2023-09-17T19:19:34.634Z,4.47
2023-09-17T19:22:02.587Z,8.25
2023-09-17T19:24:30.449Z,4.07
2023-09-17T19:26:57.047Z,5.18
2023-09-17T19:29:23.536Z,5.95
2023-09-17T19:31:50.111Z,4.07
2023-09-17T19:34:16.763Z,4.47
2023-09-17T19:36:43.416Z,5.32
2023-09-17T19:39:09.923Z,4.95
2023-09-17T19:41:37.724Z,4.50
2023-09-17T19:44:04.273Z,5.43
2023-09-17T19:46:30.762Z,3.70
2023-09-17T19:48:57.411Z,5.03
2023-09-17T19:51:24.037Z,3.85
2023-09-17T19:53:50.845Z,6.28
2023-09-17T19:56:19.335Z,3.67
2023-09-17T19:58:47.760Z,5.60
2023-09-17T20:01:14.254Z,4.03
2023-09-17T20:03:41.114Z,7.35
2023-09-17T20:06:07.701Z,7.05
2023-09-17T20:08:34.246Z,3.73
2023-09-17T20:11:00.776Z,5.47
2023-09-17T20:13:27.474Z,5.35
2023-09-17T20:15:55.311Z,6.43
2023-09-17T20:18:21.780Z,3.45
2023-09-17T20:20:48.280Z,4.00
2023-09-17T20:23:14.888Z,6.93
2023-09-17T20:25:41.674Z,3.58
2023-09-17T20:28:08.125Z,4.63
2023-09-17T20:30:34.597Z,5.60
2023-09-17T20:33:02.430Z,3.60
2023-09-17T20:35:29.027Z,3.45
2023-09-17T20:37:55.535Z,4.18
2023-09-17T20:40:22.004Z,5.32
2023-09-17T20:42:48.741Z,4.60
2023-09-17T20:45:15.158Z,4.70
2023-09-17T20:47:41.857Z,5.95
2023-09-17T20:50:10.349Z,4.78
2023-09-17T20:52:37.951Z,5.22
2023-09-17T20:55:05.484Z,5.75
2023-09-17T20:57:32.249Z,4.47
2023-09-17T20:59:58.934Z,5.35
2023-09-17T21:02:25.733Z,6.88
2023-09-17T21:04:52.455Z,9.18
2023-09-17T21:07:20.271Z,6.90
2023-09-17T21:09:46.723Z,6.43
2023-09-17T21:12:13.157Z,5.40
2023-09-17T21:14:39.874Z,6.03
2023-09-17T21:17:06.462Z,9.90
2023-09-17T21:19:33.239Z,8.82
2023-09-17T21:21:59.719Z,7.23
2023-09-17T21:24:27.501Z,6.97
2023-09-17T21:26:54.032Z,8.23
2023-09-17T21:29:20.630Z,6.13
2023-09-17T21:31:47.358Z,4.20
2023-09-17T21:34:13.822Z,7.50
2023-09-17T21:36:40.334Z,13.10
2023-09-17T21:39:06.895Z,8.55
2023-09-17T21:41:35.122Z,6.63
2023-09-17T21:44:01.976Z,6.32
2023-09-17T21:46:28.490Z,6.37
2023-09-17T21:48:59.407Z,5.35
2023-09-17T21:51:25.849Z,8.02
2023-09-17T21:53:52.636Z,8.25
2023-09-17T21:56:19.270Z,6.85
2023-09-17T21:58:47.131Z,7.30
2023-09-17T22:01:13.631Z,7.35
2023-09-17T22:03:40.252Z,5.53
2023-09-17T22:06:06.772Z,5.38
2023-09-17T22:08:33.317Z,7.45
2023-09-17T22:11:04.730Z,6.40
2023-09-17T22:13:31.371Z,7.03
2023-09-17T22:15:59.108Z,5.05
2023-09-17T22:18:25.632Z,6.13
2023-09-17T22:21:04.920Z,7.20
2023-09-17T22:23:31.444Z,9.63
2023-09-17T22:25:57.903Z,8.85
2023-09-17T22:28:24.544Z,5.30
2023-09-17T22:30:51.269Z,7.57
2023-09-17T22:33:19.183Z,5.90
2023-09-17T22:35:45.656Z,10.57
2023-09-17T22:38:12.149Z,6.60
2023-09-17T22:40:39.402Z,6.22
2023-09-17T22:43:08.617Z,6.45
2023-09-17T22:45:37.619Z,9.13
2023-09-17T22:48:04.989Z,9.67
2023-09-17T22:50:32.929Z,8.98
2023-09-17T22:52:59.428Z,8.63
2023-09-17T22:55:25.942Z,7.13
2023-09-17T22:57:52.381Z,5.93
2023-09-17T23:00:18.939Z,5.87
2023-09-17T23:02:45.512Z,5.03
2023-09-17T23:05:12.065Z,7.72
2023-09-17T23:07:39.846Z,12.95
2023-09-17T23:10:07.182Z,7.32
2023-09-17T23:12:33.612Z,11.70
2023-09-17T23:15:00.163Z,4.45
2023-09-17T23:17:26.663Z,8.98
2023-09-17T23:19:53.176Z,5.43
2023-09-17T23:22:19.731Z,7.47
2023-09-17T23:24:47.561Z,5.47
2023-09-17T23:27:14.048Z,9.70
2023-09-17T23:29:40.443Z,12.43
2023-09-17T23:32:07.037Z,9.90
2023-09-17T23:34:33.509Z,7.70
2023-09-17T23:37:00.004Z,7.77
2023-09-17T23:39:26.437Z,8.90
2023-09-17T23:41:54.276Z,9.05
2023-09-17T23:44:20.820Z,7.20
2023-09-17T23:46:47.292Z,6.25
2023-09-17T23:49:13.822Z,7.00
2023-09-17T23:51:40.223Z,6.18
2023-09-17T23:54:06.927Z,9.15
2023-09-17T23:56:33.413Z,6.18
2023-09-17T23:59:01.288Z,6.07
